sensor_id;sensor_type;location;lat;lon;timestamp;pressure;altitude;pressure_sealevel;temperature;humidity
77526;BME280;66627;29.424;-98.496;2023-07-31T00:00:45;98925.27;;;38.20;20.15
77526;BME280;66627;29.424;-98.496;2023-07-31T00:03:10;98919.31;;;38.42;19.68
77526;BME280;66627;29.424;-98.496;2023-07-31T00:05:35;98919.68;;;38.30;19.59
77526;BME280;66627;29.424;-98.496;2023-07-31T00:08:00;98921.67;;;37.22;20.53
77526;BME280;66627;29.424;-98.496;2023-07-31T00:10:25;98921.48;;;38.01;19.94
77526;BME280;66627;29.424;-98.496;2023-07-31T00:12:51;98920.32;;;38.77;19.97
77526;BME280;66627;29.424;-98.496;2023-07-31T00:15:16;98919.83;;;38.51;20.12
77526;BME280;66627;29.424;-98.496;2023-07-31T00:17:41;98920.36;;;38.52;20.00
77526;BME280;66627;29.424;-98.496;2023-07-31T00:20:06;98920.90;;;38.94;19.50
77526;BME280;66627;29.424;-98.496;2023-07-31T00:22:31;98918.04;;;38.50;19.57
77526;BME280;66627;29.424;-98.496;2023-07-31T00:24:57;98923.18;;;38.31;19.66
77526;BME280;66627;29.424;-98.496;2023-07-31T00:27:21;98919.57;;;38.25;19.70
77526;BME280;66627;29.424;-98.496;2023-07-31T00:29:46;98918.96;;;38.44;19.77
77526;BME280;66627;29.424;-98.496;2023-07-31T00:32:12;98917.28;;;37.78;20.16
77526;BME280;66627;29.424;-98.496;2023-07-31T00:34:37;98920.09;;;38.38;19.88
77526;BME280;66627;29.424;-98.496;2023-07-31T00:37:03;98924.07;;;38.52;20.56
77526;BME280;66627;29.424;-98.496;2023-07-31T00:39:29;98927.06;;;37.71;20.53
77526;BME280;66627;29.424;-98.496;2023-07-31T00:41:54;98927.67;;;38.00;21.06
77526;BME280;66627;29.424;-98.496;2023-07-31T00:44:18;98930.47;;;37.93;21.35
77526;BME280;66627;29.424;-98.496;2023-07-31T00:46:44;98933.96;;;36.75;20.68
77526;BME280;66627;29.424;-98.496;2023-07-31T00:49:10;98935.90;;;37.55;20.64
77526;BME280;66627;29.424;-98.496;2023-07-31T00:51:34;98935.76;;;37.70;20.41
77526;BME280;66627;29.424;-98.496;2023-07-31T00:53:59;98933.99;;;37.14;20.93
77526;BME280;66627;29.424;-98.496;2023-07-31T00:56:25;98934.38;;;37.47;21.83
77526;BME280;66627;29.424;-98.496;2023-07-31T00:58:49;98938.94;;;37.08;21.73
77526;BME280;66627;29.424;-98.496;2023-07-31T01:01:15;98942.09;;;37.37;20.89
77526;BME280;66627;29.424;-98.496;2023-07-31T01:03:41;98944.83;;;37.13;20.55
77526;BME280;66627;29.424;-98.496;2023-07-31T01:06:14;98942.16;;;37.24;20.56
77526;BME280;66627;29.424;-98.496;2023-07-31T01:08:37;98945.45;;;37.86;20.36
77526;BME280;66627;29.424;-98.496;2023-07-31T01:11:04;98943.72;;;37.43;20.64
77526;BME280;66627;29.424;-98.496;2023-07-31T01:13:22;98943.89;;;37.44;20.47
77526;BME280;66627;29.424;-98.496;2023-07-31T01:15:47;98942.86;;;37.28;20.40
77526;BME280;66627;29.424;-98.496;2023-07-31T01:18:13;98945.16;;;37.60;21.06
77526;BME280;66627;29.424;-98.496;2023-07-31T01:20:38;98948.09;;;36.80;21.24
77526;BME280;66627;29.424;-98.496;2023-07-31T01:23:13;98946.11;;;38.09;20.90
77526;BME280;66627;29.424;-98.496;2023-07-31T01:25:47;98952.89;;;37.20;21.13
77526;BME280;66627;29.424;-98.496;2023-07-31T01:27:59;98947.47;;;37.30;21.14
77526;BME280;66627;29.424;-98.496;2023-07-31T01:30:22;98948.36;;;36.73;21.95
77526;BME280;66627;29.424;-98.496;2023-07-31T01:32:44;98947.65;;;36.87;21.38
77526;BME280;66627;29.424;-98.496;2023-07-31T01:35:09;98944.81;;;37.47;21.10
77526;BME280;66627;29.424;-98.496;2023-07-31T01:37:35;98947.30;;;36.18;22.19
77526;BME280;66627;29.424;-98.496;2023-07-31T01:39:59;98946.67;;;37.13;21.57
77526;BME280;66627;29.424;-98.496;2023-07-31T01:42:25;98945.35;;;36.91;22.10
77526;BME280;66627;29.424;-98.496;2023-07-31T01:44:50;98947.37;;;36.92;21.84
77526;BME280;66627;29.424;-98.496;2023-07-31T01:47:15;98948.39;;;37.25;21.79
77526;BME280;66627;29.424;-98.496;2023-07-31T01:49:40;98947.80;;;37.66;21.52
77526;BME280;66627;29.424;-98.496;2023-07-31T01:52:06;98947.56;;;37.61;21.84
77526;BME280;66627;29.424;-98.496;2023-07-31T01:54:30;98949.07;;;37.24;21.97
77526;BME280;66627;29.424;-98.496;2023-07-31T01:56:56;98951.01;;;37.35;22.06
77526;BME280;66627;29.424;-98.496;2023-07-31T01:59:21;98953.63;;;37.19;21.90
77526;BME280;66627;29.424;-98.496;2023-07-31T02:01:46;98955.59;;;36.84;22.23
77526;BME280;66627;29.424;-98.496;2023-07-31T02:04:11;98960.52;;;36.18;22.84
77526;BME280;66627;29.424;-98.496;2023-07-31T02:06:37;98955.04;;;36.59;22.55
77526;BME280;66627;29.424;-98.496;2023-07-31T02:09:03;98957.79;;;37.23;22.20
77526;BME280;66627;29.424;-98.496;2023-07-31T02:11:28;98954.52;;;36.95;22.25
77526;BME280;66627;29.424;-98.496;2023-07-31T02:13:53;98953.41;;;36.66;22.54
77526;BME280;66627;29.424;-98.496;2023-07-31T02:16:18;98957.50;;;36.49;23.31
77526;BME280;66627;29.424;-98.496;2023-07-31T02:18:43;98955.57;;;36.53;22.67
77526;BME280;66627;29.424;-98.496;2023-07-31T02:21:08;98960.77;;;36.86;22.83
77526;BME280;66627;29.424;-98.496;2023-07-31T02:23:34;98958.19;;;37.01;22.75
77526;BME280;66627;29.424;-98.496;2023-07-31T02:25:59;98956.82;;;37.13;22.68
77526;BME280;66627;29.424;-98.496;2023-07-31T02:28:25;98962.16;;;36.69;22.80
77526;BME280;66627;29.424;-98.496;2023-07-31T02:30:50;98963.65;;;36.67;22.65
77526;BME280;66627;29.424;-98.496;2023-07-31T02:33:15;98967.80;;;36.15;23.30
77526;BME280;66627;29.424;-98.496;2023-07-31T02:35:40;98969.17;;;36.52;22.98
77526;BME280;66627;29.424;-98.496;2023-07-31T02:38:07;98970.15;;;36.08;23.25
77526;BME280;66627;29.424;-98.496;2023-07-31T02:40:31;98971.47;;;35.65;23.23
77526;BME280;66627;29.424;-98.496;2023-07-31T02:42:56;98975.61;;;36.12;23.21
77526;BME280;66627;29.424;-98.496;2023-07-31T02:45:21;98975.74;;;36.15;23.37
77526;BME280;66627;29.424;-98.496;2023-07-31T02:47:46;98978.16;;;35.71;23.55
77526;BME280;66627;29.424;-98.496;2023-07-31T02:50:11;98979.04;;;36.52;23.05
77526;BME280;66627;29.424;-98.496;2023-07-31T02:52:38;98979.01;;;35.98;23.58
77526;BME280;66627;29.424;-98.496;2023-07-31T02:55:02;98981.95;;;36.22;23.45
77526;BME280;66627;29.424;-98.496;2023-07-31T02:57:27;98985.16;;;35.62;23.99
77526;BME280;66627;29.424;-98.496;2023-07-31T02:59:52;98986.99;;;35.34;24.44
77526;BME280;66627;29.424;-98.496;2023-07-31T03:02:18;98989.19;;;35.59;24.14
77526;BME280;66627;29.424;-98.496;2023-07-31T03:04:43;98992.24;;;35.07;24.49
77526;BME280;66627;29.424;-98.496;2023-07-31T03:07:09;98997.85;;;35.79;23.67
77526;BME280;66627;29.424;-98.496;2023-07-31T03:09:33;98999.08;;;35.60;24.03
77526;BME280;66627;29.424;-98.496;2023-07-31T03:11:59;98999.58;;;35.65;24.00
77526;BME280;66627;29.424;-98.496;2023-07-31T03:14:25;99002.82;;;35.00;24.68
77526;BME280;66627;29.424;-98.496;2023-07-31T03:16:49;99007.79;;;34.82;25.58
77526;BME280;66627;29.424;-98.496;2023-07-31T03:19:15;99011.78;;;35.62;24.74
77526;BME280;66627;29.424;-98.496;2023-07-31T03:21:40;99015.56;;;34.76;25.28
77526;BME280;66627;29.424;-98.496;2023-07-31T03:24:05;99022.12;;;35.27;24.79
77526;BME280;66627;29.424;-98.496;2023-07-31T03:26:31;99025.21;;;35.47;25.19
77526;BME280;66627;29.424;-98.496;2023-07-31T03:28:56;99027.89;;;34.77;25.53
77526;BME280;66627;29.424;-98.496;2023-07-31T03:31:21;99036.21;;;34.39;26.61
77526;BME280;66627;29.424;-98.496;2023-07-31T03:33:46;99037.50;;;34.01;26.81
77526;BME280;66627;29.424;-98.496;2023-07-31T03:36:11;99041.83;;;33.94;27.55
77526;BME280;66627;29.424;-98.496;2023-07-31T03:38:36;99041.00;;;33.95;27.25
77526;BME280;66627;29.424;-98.496;2023-07-31T03:41:01;99045.69;;;33.89;27.58
77526;BME280;66627;29.424;-98.496;2023-07-31T03:43:27;99044.74;;;33.94;27.66
77526;BME280;66627;29.424;-98.496;2023-07-31T03:45:51;99052.61;;;33.17;28.55
77526;BME280;66627;29.424;-98.496;2023-07-31T03:48:18;99052.82;;;34.43;27.51
77526;BME280;66627;29.424;-98.496;2023-07-31T03:50:42;99054.30;;;33.77;28.10
77526;BME280;66627;29.424;-98.496;2023-07-31T03:53:07;99057.22;;;33.99;27.93
77526;BME280;66627;29.424;-98.496;2023-07-31T03:55:33;99055.66;;;33.24;28.96
77526;BME280;66627;29.424;-98.496;2023-07-31T03:57:57;99059.27;;;33.17;28.75
77526;BME280;66627;29.424;-98.496;2023-07-31T04:00:23;99063.20;;;33.02;29.17
77526;BME280;66627;29.424;-98.496;2023-07-31T04:02:54;99062.72;;;32.51;30.33
77526;BME280;66627;29.424;-98.496;2023-07-31T04:05:13;99057.42;;;31.84;31.20
77526;BME280;66627;29.424;-98.496;2023-07-31T04:07:38;99066.14;;;32.27;31.09
77526;BME280;66627;29.424;-98.496;2023-07-31T04:10:04;99074.59;;;32.57;30.81
77526;BME280;66627;29.424;-98.496;2023-07-31T04:12:29;99080.95;;;32.77;30.80
77526;BME280;66627;29.424;-98.496;2023-07-31T04:14:54;99078.45;;;32.19;32.01
77526;BME280;66627;29.424;-98.496;2023-07-31T04:17:19;99076.53;;;32.05;32.23
77526;BME280;66627;29.424;-98.496;2023-07-31T04:19:45;99079.49;;;32.25;32.10
77526;BME280;66627;29.424;-98.496;2023-07-31T04:22:09;99077.69;;;32.65;31.75
77526;BME280;66627;29.424;-98.496;2023-07-31T04:24:35;99072.69;;;32.49;32.00
77526;BME280;66627;29.424;-98.496;2023-07-31T04:27:00;99074.10;;;33.30;31.59
77526;BME280;66627;29.424;-98.496;2023-07-31T04:29:25;99071.90;;;32.83;31.53
77526;BME280;66627;29.424;-98.496;2023-07-31T04:31:50;99069.00;;;32.11;32.67
77526;BME280;66627;29.424;-98.496;2023-07-31T04:34:15;99073.66;;;32.62;32.18
77526;BME280;66627;29.424;-98.496;2023-07-31T04:36:40;99070.85;;;32.27;32.55
77526;BME280;66627;29.424;-98.496;2023-07-31T04:39:06;99075.19;;;31.74;34.45
77526;BME280;66627;29.424;-98.496;2023-07-31T04:41:31;99077.70;;;31.51;35.27
77526;BME280;66627;29.424;-98.496;2023-07-31T04:43:56;99084.27;;;31.95;35.15
77526;BME280;66627;29.424;-98.496;2023-07-31T04:46:26;99086.82;;;31.76;35.59
77526;BME280;66627;29.424;-98.496;2023-07-31T04:48:46;99086.05;;;31.00;36.25
77526;BME280;66627;29.424;-98.496;2023-07-31T04:51:11;99089.66;;;31.48;36.01
77526;BME280;66627;29.424;-98.496;2023-07-31T04:53:37;99085.08;;;31.39;36.21
77526;BME280;66627;29.424;-98.496;2023-07-31T04:56:02;99090.51;;;31.77;35.60
77526;BME280;66627;29.424;-98.496;2023-07-31T04:58:27;99088.40;;;31.56;36.08
77526;BME280;66627;29.424;-98.496;2023-07-31T05:00:52;99089.87;;;32.39;35.09
77526;BME280;66627;29.424;-98.496;2023-07-31T05:03:17;99091.21;;;32.06;35.44
77526;BME280;66627;29.424;-98.496;2023-07-31T05:05:42;99090.34;;;31.57;35.83
77526;BME280;66627;29.424;-98.496;2023-07-31T05:08:07;99092.01;;;32.30;35.10
77526;BME280;66627;29.424;-98.496;2023-07-31T05:10:33;99085.96;;;32.40;34.96
77526;BME280;66627;29.424;-98.496;2023-07-31T05:12:58;99084.56;;;32.56;34.60
77526;BME280;66627;29.424;-98.496;2023-07-31T05:15:23;99091.39;;;31.28;36.23
77526;BME280;66627;29.424;-98.496;2023-07-31T05:17:49;99097.77;;;32.26;35.26
77526;BME280;66627;29.424;-98.496;2023-07-31T05:20:14;99097.91;;;32.27;35.03
77526;BME280;66627;29.424;-98.496;2023-07-31T05:22:39;99096.00;;;31.02;35.58
77526;BME280;66627;29.424;-98.496;2023-07-31T05:25:05;99097.21;;;31.49;34.78
77526;BME280;66627;29.424;-98.496;2023-07-31T05:27:29;99097.53;;;31.64;34.85
77526;BME280;66627;29.424;-98.496;2023-07-31T05:29:55;99097.03;;;31.17;35.07
77526;BME280;66627;29.424;-98.496;2023-07-31T05:32:20;99097.82;;;31.81;34.88
77526;BME280;66627;29.424;-98.496;2023-07-31T05:34:45;99097.06;;;31.22;35.12
77526;BME280;66627;29.424;-98.496;2023-07-31T05:37:11;99091.05;;;31.48;34.79
77526;BME280;66627;29.424;-98.496;2023-07-31T05:39:36;99089.73;;;31.82;34.60
77526;BME280;66627;29.424;-98.496;2023-07-31T05:42:00;99090.02;;;32.21;33.78
77526;BME280;66627;29.424;-98.496;2023-07-31T05:44:25;99087.27;;;31.20;35.37
77526;BME280;66627;29.424;-98.496;2023-07-31T05:46:51;99087.58;;;31.99;34.68
77526;BME280;66627;29.424;-98.496;2023-07-31T05:49:16;99086.38;;;31.81;35.19
77526;BME280;66627;29.424;-98.496;2023-07-31T05:51:41;99084.31;;;31.43;35.82
77526;BME280;66627;29.424;-98.496;2023-07-31T05:54:07;99082.60;;;31.39;35.30
77526;BME280;66627;29.424;-98.496;2023-07-31T05:56:32;99085.21;;;31.69;35.58
77526;BME280;66627;29.424;-98.496;2023-07-31T05:58:57;99083.78;;;31.42;35.62
77526;BME280;66627;29.424;-98.496;2023-07-31T06:01:22;99080.34;;;30.47;36.47
77526;BME280;66627;29.424;-98.496;2023-07-31T06:03:48;99081.93;;;31.67;35.36
77526;BME280;66627;29.424;-98.496;2023-07-31T06:06:14;99074.02;;;32.59;34.22
77526;BME280;66627;29.424;-98.496;2023-07-31T06:08:38;99075.72;;;31.27;35.46
77526;BME280;66627;29.424;-98.496;2023-07-31T06:11:04;99075.81;;;31.49;35.58
77526;BME280;66627;29.424;-98.496;2023-07-31T06:13:29;99074.60;;;31.42;35.59
77526;BME280;66627;29.424;-98.496;2023-07-31T06:15:54;99073.44;;;32.52;34.55
77526;BME280;66627;29.424;-98.496;2023-07-31T06:18:19;99074.90;;;32.23;34.87
77526;BME280;66627;29.424;-98.496;2023-07-31T06:20:44;99075.11;;;32.25;34.97
77526;BME280;66627;29.424;-98.496;2023-07-31T06:23:09;99076.73;;;32.39;34.92
77526;BME280;66627;29.424;-98.496;2023-07-31T06:25:34;99075.04;;;30.83;36.65
77526;BME280;66627;29.424;-98.496;2023-07-31T06:28:00;99073.68;;;30.41;37.30
77526;BME280;66627;29.424;-98.496;2023-07-31T06:30:25;99077.68;;;30.69;37.17
77526;BME280;66627;29.424;-98.496;2023-07-31T06:32:50;99079.48;;;30.59;37.01
77526;BME280;66627;29.424;-98.496;2023-07-31T06:35:15;99081.67;;;30.13;38.52
77526;BME280;66627;29.424;-98.496;2023-07-31T06:37:40;99083.58;;;30.08;38.76
77526;BME280;66627;29.424;-98.496;2023-07-31T06:40:06;99085.77;;;30.37;38.56
77526;BME280;66627;29.424;-98.496;2023-07-31T06:42:31;99083.74;;;30.06;39.74
77526;BME280;66627;29.424;-98.496;2023-07-31T06:44:55;99079.35;;;30.32;39.64
77526;BME280;66627;29.424;-98.496;2023-07-31T06:47:21;99079.06;;;30.84;38.94
77526;BME280;66627;29.424;-98.496;2023-07-31T06:49:46;99078.16;;;30.41;40.06
77526;BME280;66627;29.424;-98.496;2023-07-31T06:52:16;99077.95;;;30.00;40.93
77526;BME280;66627;29.424;-98.496;2023-07-31T06:54:36;99072.89;;;29.45;41.94
77526;BME280;66627;29.424;-98.496;2023-07-31T06:57:02;99076.94;;;29.52;42.41
77526;BME280;66627;29.424;-98.496;2023-07-31T06:59:29;99082.82;;;28.74;43.65
77526;BME280;66627;29.424;-98.496;2023-07-31T07:01:52;99084.15;;;29.32;42.90
77526;BME280;66627;29.424;-98.496;2023-07-31T07:04:17;99081.89;;;30.31;42.28
77526;BME280;66627;29.424;-98.496;2023-07-31T07:06:45;99083.47;;;29.45;43.49
77526;BME280;66627;29.424;-98.496;2023-07-31T07:09:08;99083.77;;;29.57;43.09
77526;BME280;66627;29.424;-98.496;2023-07-31T07:11:32;99075.26;;;29.92;42.21
77526;BME280;66627;29.424;-98.496;2023-07-31T07:13:58;99075.57;;;29.16;43.42
77526;BME280;66627;29.424;-98.496;2023-07-31T07:16:23;99076.86;;;29.28;43.44
77526;BME280;66627;29.424;-98.496;2023-07-31T07:18:49;99074.54;;;29.87;42.50
77526;BME280;66627;29.424;-98.496;2023-07-31T07:21:14;99083.02;;;29.43;43.26
77526;BME280;66627;29.424;-98.496;2023-07-31T07:23:39;99080.18;;;28.86;44.20
77526;BME280;66627;29.424;-98.496;2023-07-31T07:26:05;99075.20;;;30.00;42.44
77526;BME280;66627;29.424;-98.496;2023-07-31T07:28:29;99074.36;;;30.19;42.98
77526;BME280;66627;29.424;-98.496;2023-07-31T07:30:55;99073.65;;;29.90;43.60
77526;BME280;66627;29.424;-98.496;2023-07-31T07:33:20;99072.28;;;29.85;42.76
77526;BME280;66627;29.424;-98.496;2023-07-31T07:35:45;99078.58;;;28.82;44.48
77526;BME280;66627;29.424;-98.496;2023-07-31T07:38:10;99073.10;;;30.03;43.29
77526;BME280;66627;29.424;-98.496;2023-07-31T07:40:39;99072.08;;;30.62;42.45
77526;BME280;66627;29.424;-98.496;2023-07-31T07:43:01;99067.21;;;29.87;43.04
77526;BME280;66627;29.424;-98.496;2023-07-31T07:45:26;99070.41;;;29.52;43.69
77526;BME280;66627;29.424;-98.496;2023-07-31T07:47:51;99077.55;;;28.70;44.51
77526;BME280;66627;29.424;-98.496;2023-07-31T07:50:17;99074.03;;;30.50;42.58
77526;BME280;66627;29.424;-98.496;2023-07-31T07:52:42;99071.33;;;30.72;41.90
77526;BME280;66627;29.424;-98.496;2023-07-31T07:55:08;99065.38;;;30.18;42.16
77526;BME280;66627;29.424;-98.496;2023-07-31T07:57:32;99062.08;;;29.77;43.12
77526;BME280;66627;29.424;-98.496;2023-07-31T07:59:58;99066.57;;;28.91;44.32
77526;BME280;66627;29.424;-98.496;2023-07-31T08:02:23;99070.99;;;28.96;44.75
77526;BME280;66627;29.424;-98.496;2023-07-31T08:04:48;99072.36;;;29.94;43.27
77526;BME280;66627;29.424;-98.496;2023-07-31T08:07:14;99076.58;;;30.27;42.60
77526;BME280;66627;29.424;-98.496;2023-07-31T08:09:39;99081.16;;;29.18;44.76
77526;BME280;66627;29.424;-98.496;2023-07-31T08:12:05;99080.30;;;28.82;45.41
77526;BME280;66627;29.424;-98.496;2023-07-31T08:14:29;99080.00;;;29.22;44.71
77526;BME280;66627;29.424;-98.496;2023-07-31T08:16:55;99072.64;;;30.04;43.33
77526;BME280;66627;29.424;-98.496;2023-07-31T08:19:20;99078.73;;;30.35;42.61
77526;BME280;66627;29.424;-98.496;2023-07-31T08:21:45;99080.59;;;30.29;42.61
77526;BME280;66627;29.424;-98.496;2023-07-31T08:24:10;99081.14;;;30.36;42.63
77526;BME280;66627;29.424;-98.496;2023-07-31T08:26:36;99082.37;;;30.03;43.34
77526;BME280;66627;29.424;-98.496;2023-07-31T08:29:01;99084.55;;;28.85;45.40
77526;BME280;66627;29.424;-98.496;2023-07-31T08:31:27;99082.83;;;29.27;44.71
77526;BME280;66627;29.424;-98.496;2023-07-31T08:33:52;99083.17;;;28.70;45.77
77526;BME280;66627;29.424;-98.496;2023-07-31T08:36:17;99081.40;;;29.22;45.37
77526;BME280;66627;29.424;-98.496;2023-07-31T08:38:45;99078.92;;;29.47;44.35
77526;BME280;66627;29.424;-98.496;2023-07-31T08:41:08;99075.95;;;30.36;42.89
77526;BME280;66627;29.424;-98.496;2023-07-31T08:43:34;99077.39;;;30.27;43.32
77526;BME280;66627;29.424;-98.496;2023-07-31T08:45:59;99070.79;;;30.67;42.58
77526;BME280;66627;29.424;-98.496;2023-07-31T08:48:24;99063.33;;;31.12;41.76
77526;BME280;66627;29.424;-98.496;2023-07-31T08:50:49;99065.08;;;31.03;41.51
77526;BME280;66627;29.424;-98.496;2023-07-31T08:53:14;99072.96;;;30.68;42.45
77526;BME280;66627;29.424;-98.496;2023-07-31T08:55:39;99078.35;;;30.96;42.11
77526;BME280;66627;29.424;-98.496;2023-07-31T08:58:05;99084.25;;;30.62;42.31
77526;BME280;66627;29.424;-98.496;2023-07-31T09:00:32;99082.22;;;31.12;41.77
77526;BME280;66627;29.424;-98.496;2023-07-31T09:02:59;99080.86;;;30.96;41.58
77526;BME280;66627;29.424;-98.496;2023-07-31T09:05:21;99083.82;;;30.76;42.30
77526;BME280;66627;29.424;-98.496;2023-07-31T09:07:47;99088.96;;;30.35;42.92
77526;BME280;66627;29.424;-98.496;2023-07-31T09:10:11;99094.90;;;30.73;42.72
77526;BME280;66627;29.424;-98.496;2023-07-31T09:12:37;99093.69;;;30.83;42.10
77526;BME280;66627;29.424;-98.496;2023-07-31T09:15:02;99094.16;;;30.78;42.03
77526;BME280;66627;29.424;-98.496;2023-07-31T09:17:31;99089.38;;;30.84;42.27
77526;BME280;66627;29.424;-98.496;2023-07-31T09:19:52;99089.04;;;30.14;43.33
77526;BME280;66627;29.424;-98.496;2023-07-31T09:22:17;99085.74;;;30.20;43.39
77526;BME280;66627;29.424;-98.496;2023-07-31T09:24:42;99090.62;;;29.60;44.62
77526;BME280;66627;29.424;-98.496;2023-07-31T09:27:08;99089.52;;;28.38;46.09
77526;BME280;66627;29.424;-98.496;2023-07-31T09:29:33;99089.33;;;28.87;45.53
77526;BME280;66627;29.424;-98.496;2023-07-31T09:31:59;99088.16;;;29.49;44.29
77526;BME280;66627;29.424;-98.496;2023-07-31T09:34:30;99094.17;;;29.50;44.48
77526;BME280;66627;29.424;-98.496;2023-07-31T09:36:50;99095.61;;;30.09;43.79
77526;BME280;66627;29.424;-98.496;2023-07-31T09:39:17;99094.11;;;30.14;43.71
77526;BME280;66627;29.424;-98.496;2023-07-31T09:41:42;99092.46;;;29.76;44.07
77526;BME280;66627;29.424;-98.496;2023-07-31T09:44:08;99092.46;;;30.36;43.09
77526;BME280;66627;29.424;-98.496;2023-07-31T09:46:31;99097.51;;;30.28;42.93
77526;BME280;66627;29.424;-98.496;2023-07-31T09:49:06;99100.05;;;30.27;43.41
77526;BME280;66627;29.424;-98.496;2023-07-31T09:51:26;99099.43;;;29.36;44.64
77526;BME280;66627;29.424;-98.496;2023-07-31T09:53:51;99098.45;;;28.50;45.40
77526;BME280;66627;29.424;-98.496;2023-07-31T09:56:11;99096.98;;;29.45;44.53
77526;BME280;66627;29.424;-98.496;2023-07-31T09:58:36;99095.49;;;29.01;44.81
77526;BME280;66627;29.424;-98.496;2023-07-31T10:01:02;99097.90;;;29.37;44.16
77526;BME280;66627;29.424;-98.496;2023-07-31T10:03:28;99102.33;;;29.79;44.14
77526;BME280;66627;29.424;-98.496;2023-07-31T10:05:54;99103.65;;;30.11;43.67
77526;BME280;66627;29.424;-98.496;2023-07-31T10:08:20;99109.53;;;29.40;44.43
77526;BME280;66627;29.424;-98.496;2023-07-31T10:10:44;99114.49;;;29.47;44.88
77526;BME280;66627;29.424;-98.496;2023-07-31T10:13:09;99112.77;;;29.81;43.79
77526;BME280;66627;29.424;-98.496;2023-07-31T10:15:35;99113.07;;;28.20;46.17
77526;BME280;66627;29.424;-98.496;2023-07-31T10:17:59;99113.33;;;29.51;45.16
77526;BME280;66627;29.424;-98.496;2023-07-31T10:20:25;99117.49;;;29.64;44.55
77526;BME280;66627;29.424;-98.496;2023-07-31T10:22:49;99117.40;;;29.58;44.21
77526;BME280;66627;29.424;-98.496;2023-07-31T10:25:15;99119.15;;;30.00;43.81
77526;BME280;66627;29.424;-98.496;2023-07-31T10:27:41;99120.51;;;30.16;43.34
77526;BME280;66627;29.424;-98.496;2023-07-31T10:30:08;99121.37;;;30.19;43.29
77526;BME280;66627;29.424;-98.496;2023-07-31T10:32:31;99125.23;;;29.36;44.26
77526;BME280;66627;29.424;-98.496;2023-07-31T10:34:56;99126.15;;;29.22;44.48
77526;BME280;66627;29.424;-98.496;2023-07-31T10:37:27;99132.08;;;29.48;44.61
77526;BME280;66627;29.424;-98.496;2023-07-31T10:39:56;99142.17;;;29.60;44.59
77526;BME280;66627;29.424;-98.496;2023-07-31T10:42:12;99145.74;;;29.80;44.25
77526;BME280;66627;29.424;-98.496;2023-07-31T10:44:36;99141.77;;;29.76;43.49
77526;BME280;66627;29.424;-98.496;2023-07-31T10:47:02;99135.83;;;29.78;43.73
77526;BME280;66627;29.424;-98.496;2023-07-31T10:49:30;99131.24;;;29.86;43.81
77526;BME280;66627;29.424;-98.496;2023-07-31T10:51:53;99132.40;;;29.63;44.12
77526;BME280;66627;29.424;-98.496;2023-07-31T10:54:17;99134.52;;;29.70;44.34
77526;BME280;66627;29.424;-98.496;2023-07-31T10:56:46;99136.71;;;29.42;44.12
77526;BME280;66627;29.424;-98.496;2023-07-31T10:59:08;99135.91;;;29.61;44.35
77526;BME280;66627;29.424;-98.496;2023-07-31T11:03:58;99132.04;;;29.62;45.20
77526;BME280;66627;29.424;-98.496;2023-07-31T11:06:29;99131.54;;;28.48;45.60
77526;BME280;66627;29.424;-98.496;2023-07-31T11:11:16;99142.48;;;29.04;45.41
77526;BME280;66627;29.424;-98.496;2023-07-31T11:13:44;99142.23;;;29.40;45.01
77526;BME280;66627;29.424;-98.496;2023-07-31T11:16:04;99142.65;;;29.57;44.40
77526;BME280;66627;29.424;-98.496;2023-07-31T11:18:29;99147.02;;;29.35;44.91
77526;BME280;66627;29.424;-98.496;2023-07-31T11:20:55;99149.24;;;29.40;45.46
77526;BME280;66627;29.424;-98.496;2023-07-31T11:23:21;99151.13;;;28.95;45.67
77526;BME280;66627;29.424;-98.496;2023-07-31T11:25:46;99156.18;;;29.54;44.57
77526;BME280;66627;29.424;-98.496;2023-07-31T11:28:12;99158.73;;;28.54;45.75
77526;BME280;66627;29.424;-98.496;2023-07-31T11:30:36;99157.32;;;29.35;45.12
77526;BME280;66627;29.424;-98.496;2023-07-31T11:33:04;99156.67;;;29.42;45.11
77526;BME280;66627;29.424;-98.496;2023-07-31T11:35:27;99158.56;;;29.52;44.99
77526;BME280;66627;29.424;-98.496;2023-07-31T11:37:52;99157.83;;;28.91;45.65
77526;BME280;66627;29.424;-98.496;2023-07-31T11:40:17;99155.19;;;29.44;44.91
77526;BME280;66627;29.424;-98.496;2023-07-31T11:42:43;99153.05;;;28.32;47.00
77526;BME280;66627;29.424;-98.496;2023-07-31T11:45:11;99152.83;;;28.71;46.36
77526;BME280;66627;29.424;-98.496;2023-07-31T11:47:33;99157.56;;;29.10;45.78
77526;BME280;66627;29.424;-98.496;2023-07-31T11:49:58;99163.40;;;29.43;45.36
77526;BME280;66627;29.424;-98.496;2023-07-31T11:52:23;99163.89;;;29.20;45.47
77526;BME280;66627;29.424;-98.496;2023-07-31T11:54:49;99163.09;;;29.37;45.04
77526;BME280;66627;29.424;-98.496;2023-07-31T11:57:14;99166.28;;;29.24;45.81
77526;BME280;66627;29.424;-98.496;2023-07-31T11:59:39;99173.57;;;29.25;45.71
77526;BME280;66627;29.424;-98.496;2023-07-31T12:02:05;99175.56;;;29.12;46.32
77526;BME280;66627;29.424;-98.496;2023-07-31T12:04:30;99183.17;;;28.44;47.53
77526;BME280;66627;29.424;-98.496;2023-07-31T12:06:54;99183.71;;;29.15;46.17
77526;BME280;66627;29.424;-98.496;2023-07-31T12:09:20;99182.01;;;29.14;46.02
77526;BME280;66627;29.424;-98.496;2023-07-31T12:11:46;99182.49;;;29.53;45.62
77526;BME280;66627;29.424;-98.496;2023-07-31T12:14:20;99181.70;;;28.94;46.35
77526;BME280;66627;29.424;-98.496;2023-07-31T12:16:36;99179.81;;;29.27;45.55
77526;BME280;66627;29.424;-98.496;2023-07-31T12:19:01;99187.03;;;29.03;46.45
77526;BME280;66627;29.424;-98.496;2023-07-31T12:21:28;99187.21;;;29.33;45.98
77526;BME280;66627;29.424;-98.496;2023-07-31T12:23:52;99193.64;;;29.05;46.44
77526;BME280;66627;29.424;-98.496;2023-07-31T12:26:18;99192.66;;;29.32;46.00
77526;BME280;66627;29.424;-98.496;2023-07-31T12:28:43;99192.25;;;29.35;46.00
77526;BME280;66627;29.424;-98.496;2023-07-31T12:31:08;99197.31;;;29.52;45.76
77526;BME280;66627;29.424;-98.496;2023-07-31T12:33:34;99198.34;;;29.54;45.68